createdAt,value
2018-05-27T00:00:52.418Z,1014.66
2018-05-27T00:02:45.421Z,1014.63
2018-05-27T00:03:45.479Z,1014.60
2018-05-27T00:05:38.487Z,1014.58
2018-05-27T00:06:38.545Z,1014.55
2018-05-27T00:08:31.550Z,1014.50
2018-05-27T00:09:31.608Z,1014.50
2018-05-27T00:11:24.611Z,1014.49
2018-05-27T00:12:24.679Z,1014.44
2018-05-27T00:14:17.683Z,1014.46
2018-05-27T00:15:17.740Z,1014.39
2018-05-27T00:17:10.742Z,1014.42
2018-05-27T00:18:10.804Z,1014.39
2018-05-27T00:20:03.814Z,1014.36
2018-05-27T00:21:03.883Z,1014.34
2018-05-27T00:22:56.882Z,1014.30
2018-05-27T00:23:56.941Z,1014.26
2018-05-27T00:25:49.943Z,1014.27
2018-05-27T00:26:50.011Z,1014.27
2018-05-27T00:28:43.011Z,1014.29
2018-05-27T00:29:43.069Z,1014.26
2018-05-27T00:31:36.076Z,1014.24
2018-05-27T00:32:36.140Z,1014.21
2018-05-27T00:34:29.142Z,1014.18
2018-05-27T00:35:29.202Z,1014.19
2018-05-27T00:37:22.225Z,1014.20
2018-05-27T00:38:22.264Z,1014.24
2018-05-27T00:40:15.273Z,1014.20
2018-05-27T00:41:15.337Z,1014.20
2018-05-27T00:43:08.332Z,1014.22
2018-05-27T00:44:08.398Z,1014.24
2018-05-27T00:46:01.391Z,1014.22
2018-05-27T00:47:01.461Z,1014.27
2018-05-27T00:48:54.465Z,1014.24
2018-05-27T00:49:54.607Z,1014.24
2018-05-27T00:51:47.523Z,1014.23
2018-05-27T00:52:47.584Z,1014.22
2018-05-27T00:54:40.584Z,1014.25
2018-05-27T00:55:40.646Z,1014.27
2018-05-27T00:57:33.649Z,1014.25
2018-05-27T00:58:33.715Z,1014.24
2018-05-27T01:00:26.724Z,1014.24
2018-05-27T01:01:26.782Z,1014.25
2018-05-27T01:03:19.790Z,1014.27
2018-05-27T01:04:19.850Z,1014.26
2018-05-27T01:06:12.848Z,1014.25
2018-05-27T01:07:12.915Z,1014.25
2018-05-27T01:09:05.922Z,1014.17
2018-05-27T01:10:05.981Z,1014.18
2018-05-27T01:11:58.981Z,1014.18
2018-05-27T01:12:59.043Z,1014.17
2018-05-27T01:14:52.045Z,1014.14
2018-05-27T01:15:52.105Z,1014.13
2018-05-27T01:17:45.107Z,1014.10
2018-05-27T01:18:45.171Z,1014.10
2018-05-27T01:20:38.170Z,1014.08
2018-05-27T01:21:38.234Z,1014.05
2018-05-27T01:23:31.231Z,1014.05
2018-05-27T01:24:31.288Z,1014.03
2018-05-27T01:26:24.286Z,1014.05
2018-05-27T01:27:24.351Z,1014.03
2018-05-27T01:29:17.354Z,1013.99
2018-05-27T01:30:17.414Z,1014.00
2018-05-27T01:32:10.409Z,1013.98
2018-05-27T01:33:10.475Z,1014.05
2018-05-27T01:35:03.478Z,1013.97
2018-05-27T01:36:03.539Z,1013.97
2018-05-27T01:37:56.539Z,1013.94
2018-05-27T01:38:56.603Z,1013.99
2018-05-27T01:40:49.602Z,1013.97
2018-05-27T01:41:49.661Z,1013.94
2018-05-27T01:43:42.663Z,1013.95
2018-05-27T01:44:42.722Z,1013.96
2018-05-27T01:46:35.737Z,1013.96
2018-05-27T01:47:35.803Z,1013.95
2018-05-27T01:49:28.804Z,1014.00
2018-05-27T01:50:28.864Z,1013.99
2018-05-27T01:52:21.866Z,1014.00
2018-05-27T01:53:21.932Z,1014.01
2018-05-27T01:55:14.936Z,1013.96
2018-05-27T01:56:14.994Z,1013.99
2018-05-27T01:58:08.002Z,1014.00
2018-05-27T01:59:08.065Z,1014.02
2018-05-27T02:01:01.068Z,1014.05
2018-05-27T02:02:01.124Z,1014.01
2018-05-27T02:03:54.119Z,1014.01
2018-05-27T02:04:54.187Z,1014.01
2018-05-27T02:06:47.191Z,1013.99
2018-05-27T02:07:47.250Z,1013.98
2018-05-27T02:09:40.251Z,1013.98
2018-05-27T02:10:40.361Z,1013.98
2018-05-27T02:12:33.304Z,1014.02
2018-05-27T02:13:33.370Z,1013.98
2018-05-27T02:15:26.374Z,1014.05
2018-05-27T02:16:26.430Z,1014.03
2018-05-27T02:18:19.427Z,1014.02
2018-05-27T02:19:19.491Z,1014.02
2018-05-27T02:21:12.496Z,1013.98
2018-05-27T02:22:12.557Z,1013.98
2018-05-27T02:24:05.560Z,1013.94
2018-05-27T02:25:05.620Z,1013.98
2018-05-27T02:26:58.620Z,1013.96
2018-05-27T02:27:58.680Z,1013.96
2018-05-27T02:29:51.683Z,1013.94
2018-05-27T02:30:51.742Z,1013.88
2018-05-27T02:32:44.737Z,1013.95
2018-05-27T02:33:44.802Z,1013.93
2018-05-27T02:35:37.803Z,1013.92
2018-05-27T02:36:37.863Z,1013.90
2018-05-27T02:38:30.859Z,1013.92
2018-05-27T02:39:30.924Z,1013.92
2018-05-27T02:41:23.931Z,1013.92
2018-05-27T02:42:23.987Z,1013.88
2018-05-27T02:44:16.983Z,1013.87
2018-05-27T02:45:17.048Z,1013.86
2018-05-27T02:47:10.049Z,1013.85
2018-05-27T02:48:10.109Z,1013.87
2018-05-27T02:50:03.111Z,1013.87
2018-05-27T02:51:03.169Z,1013.84
2018-05-27T02:52:56.171Z,1013.85
2018-05-27T02:53:56.238Z,1013.83
2018-05-27T02:55:49.241Z,1013.81
2018-05-27T02:56:49.297Z,1013.80
2018-05-27T02:58:42.291Z,1013.74
2018-05-27T02:59:42.357Z,1013.77
2018-05-27T03:01:35.365Z,1013.72
2018-05-27T03:02:35.427Z,1013.71
2018-05-27T03:04:28.419Z,1013.74
2018-05-27T03:05:28.484Z,1013.73
2018-05-27T03:07:21.486Z,1013.74
2018-05-27T03:08:21.545Z,1013.72
2018-05-27T03:10:14.550Z,1013.73
2018-05-27T03:11:14.608Z,1013.74
2018-05-27T03:13:07.602Z,1013.77
2018-05-27T03:14:07.672Z,1013.77
2018-05-27T03:16:01.179Z,1013.79
2018-05-27T03:17:01.237Z,1013.80
2018-05-27T03:18:54.230Z,1013.82
2018-05-27T03:19:54.296Z,1013.82
2018-05-27T03:21:47.294Z,1013.82
2018-05-27T03:22:47.357Z,1013.80
2018-05-27T03:24:40.355Z,1013.73
2018-05-27T03:25:40.422Z,1013.74
2018-05-27T03:27:33.418Z,1013.75
2018-05-27T03:28:33.476Z,1013.76
2018-05-27T03:30:26.482Z,1013.79
2018-05-27T03:31:26.534Z,1013.75
2018-05-27T03:33:19.529Z,1013.72
2018-05-27T03:34:19.597Z,1013.76
2018-05-27T03:36:12.595Z,1013.71
2018-05-27T03:37:12.653Z,1013.72
2018-05-27T03:39:05.646Z,1013.70
2018-05-27T03:40:05.709Z,1013.71
2018-05-27T03:41:58.714Z,1013.72
2018-05-27T03:42:58.771Z,1013.72
2018-05-27T03:44:51.764Z,1013.73
2018-05-27T03:45:51.827Z,1013.75
2018-05-27T03:47:44.831Z,1013.79
2018-05-27T03:48:44.887Z,1013.76
2018-05-27T03:50:37.887Z,1013.78
2018-05-27T03:51:37.944Z,1013.77
2018-05-27T03:53:30.939Z,1013.80
2018-05-27T03:54:31.005Z,1013.83
2018-05-27T03:56:24.005Z,1013.80
2018-05-27T03:57:24.063Z,1013.79
2018-05-27T03:59:17.058Z,1013.75
2018-05-27T04:00:17.122Z,1013.77
2018-05-27T04:02:10.122Z,1013.74
2018-05-27T04:03:10.183Z,1013.74
2018-05-27T04:05:03.171Z,1013.73
2018-05-27T04:06:03.240Z,1013.72
2018-05-27T04:07:56.237Z,1013.69
2018-05-27T04:08:56.295Z,1013.72
2018-05-27T04:10:49.298Z,1013.70
2018-05-27T04:11:49.360Z,1013.72
2018-05-27T04:13:42.351Z,1013.69
2018-05-27T04:14:42.417Z,1013.65
2018-05-27T04:16:36.914Z,1013.67
2018-05-27T04:17:36.972Z,1013.67
2018-05-27T04:19:29.964Z,1013.66
2018-05-27T04:20:30.030Z,1013.65
2018-05-27T04:22:23.031Z,1013.65
2018-05-27T04:23:23.090Z,1013.64
2018-05-27T04:25:16.090Z,1013.60
2018-05-27T04:26:16.152Z,1013.60
2018-05-27T04:28:09.152Z,1013.64
2018-05-27T04:29:09.210Z,1013.69
2018-05-27T04:31:02.212Z,1013.68
2018-05-27T04:32:02.270Z,1013.67
2018-05-27T04:33:55.359Z,1013.65
2018-05-27T04:34:55.333Z,1013.61
2018-05-27T04:36:48.334Z,1013.62
2018-05-27T04:37:48.521Z,1013.60
2018-05-27T04:39:41.383Z,1013.62
2018-05-27T04:40:41.447Z,1013.64
2018-05-27T04:42:34.453Z,1013.65
2018-05-27T04:43:34.512Z,1013.67
2018-05-27T04:45:27.499Z,1013.63
2018-05-27T04:46:27.569Z,1013.66
2018-05-27T04:48:20.570Z,1013.65
2018-05-27T04:49:20.628Z,1013.64
2018-05-27T04:51:13.634Z,1013.65
2018-05-27T04:52:13.698Z,1013.62
2018-05-27T04:54:06.684Z,1013.65
2018-05-27T04:55:06.751Z,1013.66
2018-05-27T04:56:59.752Z,1013.65
2018-05-27T04:57:59.815Z,1013.67
2018-05-27T04:59:52.802Z,1013.64
2018-05-27T05:00:52.867Z,1013.62
2018-05-27T05:02:45.875Z,1013.63
2018-05-27T05:03:45.931Z,1013.63
2018-05-27T05:05:38.933Z,1013.63
2018-05-27T05:06:38.996Z,1013.63
2018-05-27T05:08:31.996Z,1013.66
2018-05-27T05:09:32.098Z,1013.62
2018-05-27T05:11:25.055Z,1013.63
2018-05-27T05:12:25.116Z,1013.65
2018-05-27T05:14:18.108Z,1013.66
2018-05-27T05:15:18.174Z,1013.64
2018-05-27T05:17:11.174Z,1013.66
2018-05-27T05:18:11.234Z,1013.66
2018-05-27T05:20:04.252Z,1013.71
2018-05-27T05:21:04.293Z,1013.72
2018-05-27T05:22:57.294Z,1013.68
2018-05-27T05:23:57.357Z,1013.69
2018-05-27T05:25:50.353Z,1013.68
2018-05-27T05:26:50.415Z,1013.68
2018-05-27T05:28:43.423Z,1013.72
2018-05-27T05:29:43.488Z,1013.77
2018-05-27T05:31:36.494Z,1013.79
2018-05-27T05:32:36.549Z,1013.80
2018-05-27T05:34:29.550Z,1013.78
2018-05-27T05:35:29.612Z,1013.82
2018-05-27T05:37:22.612Z,1013.82
2018-05-27T05:38:22.671Z,1013.83
2018-05-27T05:40:15.670Z,1013.81
2018-05-27T05:41:15.732Z,1013.78
2018-05-27T05:43:08.743Z,1013.82
2018-05-27T05:44:08.794Z,1013.81
2018-05-27T05:46:01.785Z,1013.78
2018-05-27T05:47:01.870Z,1013.79
2018-05-27T05:48:54.850Z,1013.80
2018-05-27T05:49:54.918Z,1013.79
2018-05-27T05:51:47.921Z,1013.83
2018-05-27T05:52:47.977Z,1013.86
2018-05-27T05:54:40.971Z,1013.88
2018-05-27T05:55:41.038Z,1013.91
2018-05-27T05:57:34.045Z,1013.93
2018-05-27T05:58:34.103Z,1013.97
2018-05-27T06:00:27.097Z,1013.98
2018-05-27T06:01:27.163Z,1014.06
2018-05-27T06:03:20.172Z,1014.08
2018-05-27T06:04:20.227Z,1014.13
2018-05-27T06:06:13.223Z,1014.17
2018-05-27T06:07:13.289Z,1014.18
2018-05-27T06:09:06.291Z,1014.22
2018-05-27T06:10:06.353Z,1014.17
2018-05-27T06:11:59.354Z,1014.25
2018-05-27T06:12:59.414Z,1014.23
2018-05-27T06:14:52.417Z,1014.29
2018-05-27T06:15:52.482Z,1014.31
2018-05-27T06:17:45.486Z,1014.38
2018-05-27T06:18:45.546Z,1014.37
2018-05-27T06:20:38.548Z,1014.42
2018-05-27T06:21:38.612Z,1014.43
2018-05-27T06:23:31.627Z,1014.44
2018-05-27T06:24:31.687Z,1014.43
2018-05-27T06:26:24.684Z,1014.45
2018-05-27T06:27:24.747Z,1014.47
2018-05-27T06:29:17.759Z,1014.49
2018-05-27T06:30:17.820Z,1014.46
2018-05-27T06:32:10.838Z,1014.51
2018-05-27T06:33:10.898Z,1014.50
2018-05-27T06:35:03.908Z,1014.52
2018-05-27T06:36:03.983Z,1014.49
2018-05-27T06:37:56.997Z,1014.45
2018-05-27T06:38:57.062Z,1014.45
2018-05-27T06:40:50.074Z,1014.41
2018-05-27T06:41:50.142Z,1014.44
2018-05-27T06:43:43.161Z,1014.49
2018-05-27T06:44:43.227Z,1014.43
2018-05-27T06:46:36.239Z,1014.44
2018-05-27T06:47:36.313Z,1014.42
2018-05-27T06:49:29.332Z,1014.45
2018-05-27T06:50:29.401Z,1014.46
2018-05-27T06:52:22.418Z,1014.44
2018-05-27T06:53:22.488Z,1014.47
2018-05-27T06:55:15.500Z,1014.47
2018-05-27T06:56:15.579Z,1014.48
2018-05-27T06:58:08.603Z,1014.48
2018-05-27T06:59:08.669Z,1014.45
2018-05-27T07:01:01.687Z,1014.43
2018-05-27T07:02:01.761Z,1014.44
2018-05-27T07:03:54.788Z,1014.44
2018-05-27T07:04:54.899Z,1014.42
2018-05-27T07:06:47.883Z,1014.41
2018-05-27T07:07:47.954Z,1014.35
2018-05-27T07:09:40.973Z,1014.37
2018-05-27T07:10:41.042Z,1014.38
2018-05-27T07:12:34.083Z,1014.43
2018-05-27T07:13:34.137Z,1014.43
2018-05-27T07:15:27.151Z,1014.40
2018-05-27T07:16:27.228Z,1014.44
2018-05-27T07:18:20.251Z,1014.46
2018-05-27T07:19:20.319Z,1014.43
2018-05-27T07:21:13.335Z,1014.46
2018-05-27T07:22:13.417Z,1014.47
2018-05-27T07:24:06.441Z,1014.47
2018-05-27T07:25:06.507Z,1014.42
2018-05-27T07:26:59.541Z,1014.43
2018-05-27T07:27:59.603Z,1014.37
2018-05-27T07:29:52.631Z,1014.33
2018-05-27T07:30:52.696Z,1014.38
2018-05-27T07:32:45.719Z,1014.37
2018-05-27T07:33:45.790Z,1014.32
2018-05-27T07:35:38.810Z,1014.35
2018-05-27T07:36:38.889Z,1014.34
2018-05-27T07:38:31.914Z,1014.31
2018-05-27T07:39:31.985Z,1014.31
2018-05-27T07:41:25.008Z,1014.24
2018-05-27T07:42:25.087Z,1014.26
2018-05-27T07:44:18.126Z,1014.25
2018-05-27T07:45:18.185Z,1014.23
2018-05-27T07:47:11.208Z,1014.23
2018-05-27T07:48:11.285Z,1014.19
2018-05-27T07:50:04.315Z,1014.19
2018-05-27T07:51:04.393Z,1014.26
2018-05-27T07:52:57.417Z,1014.22
2018-05-27T07:53:57.491Z,1014.22
2018-05-27T07:55:50.512Z,1014.23
2018-05-27T07:56:50.591Z,1014.21
2018-05-27T07:58:43.616Z,1014.22
2018-05-27T07:59:43.691Z,1014.21
2018-05-27T08:01:36.716Z,1014.21
2018-05-27T08:02:36.792Z,1014.26
2018-05-27T08:04:29.825Z,1014.18
2018-05-27T08:05:29.903Z,1014.19
2018-05-27T08:07:22.919Z,1014.19
2018-05-27T08:08:22.999Z,1014.18
2018-05-27T08:10:16.025Z,1014.14
2018-05-27T08:11:16.100Z,1014.14
2018-05-27T08:13:09.142Z,1014.18
2018-05-27T08:14:09.205Z,1014.13
2018-05-27T08:16:02.738Z,1014.16
2018-05-27T08:17:02.949Z,1014.12
2018-05-27T08:18:55.851Z,1014.08
2018-05-27T08:19:55.950Z,1014.08
2018-05-27T08:21:48.947Z,1014.04
2018-05-27T08:22:49.026Z,1014.06
2018-05-27T08:24:42.065Z,1014.02
2018-05-27T08:25:42.140Z,1014.00
2018-05-27T08:27:35.164Z,1013.97
2018-05-27T08:28:35.240Z,1013.99
2018-05-27T08:30:28.274Z,1013.96
2018-05-27T08:31:28.349Z,1013.97
2018-05-27T08:33:21.377Z,1013.95
2018-05-27T08:34:21.449Z,1013.94
2018-05-27T08:36:14.482Z,1013.95
2018-05-27T08:37:14.559Z,1013.94
2018-05-27T08:39:07.593Z,1013.97
2018-05-27T08:40:07.665Z,1013.99
2018-05-27T08:42:00.696Z,1014.05
2018-05-27T08:43:00.779Z,1014.09
2018-05-27T08:44:53.816Z,1014.10
2018-05-27T08:45:53.888Z,1014.12
2018-05-27T08:47:46.914Z,1014.07
2018-05-27T08:48:46.999Z,1014.09
2018-05-27T08:50:40.031Z,1014.09
2018-05-27T08:51:40.104Z,1014.05
2018-05-27T08:53:33.191Z,1014.11
2018-05-27T08:54:33.394Z,1014.13
2018-05-27T08:56:26.244Z,1014.10
2018-05-27T08:57:26.335Z,1014.11
2018-05-27T08:59:19.437Z,1014.12
2018-05-27T09:00:19.439Z,1014.16
2018-05-27T09:02:12.465Z,1014.14
2018-05-27T09:03:12.551Z,1014.08
2018-05-27T09:05:05.591Z,1014.07
2018-05-27T09:06:05.672Z,1014.07
2018-05-27T09:07:58.803Z,1014.06
2018-05-27T09:08:58.801Z,1014.04
2018-05-27T09:10:51.848Z,1014.13
2018-05-27T09:11:51.923Z,1014.25
2018-05-27T09:13:44.945Z,1014.19
2018-05-27T09:14:45.027Z,1014.22
2018-05-27T09:16:38.574Z,1014.17
2018-05-27T09:17:38.665Z,1014.17
2018-05-27T09:19:31.671Z,1014.10
2018-05-27T09:20:31.762Z,1014.14
2018-05-27T09:22:24.804Z,1014.07
2018-05-27T09:23:24.850Z,1014.02
2018-05-27T09:25:17.994Z,1014.00
2018-05-27T09:26:17.977Z,1013.87
2018-05-27T09:28:10.997Z,1013.87
2018-05-27T09:29:11.077Z,1013.82
2018-05-27T09:31:04.108Z,1013.75
2018-05-27T09:32:04.388Z,1013.83
2018-05-27T09:33:57.220Z,1013.77
2018-05-27T09:34:57.283Z,1013.77
2018-05-27T09:36:50.310Z,1013.79
2018-05-27T09:37:50.384Z,1013.68
2018-05-27T09:39:43.412Z,1013.71
2018-05-27T09:40:43.488Z,1013.67
2018-05-27T09:42:36.505Z,1013.69
2018-05-27T09:43:36.577Z,1013.67
2018-05-27T09:45:29.611Z,1013.63
2018-05-27T09:46:29.676Z,1013.70
2018-05-27T09:48:22.692Z,1013.58
2018-05-27T09:49:22.770Z,1013.59
2018-05-27T09:51:15.790Z,1013.56
2018-05-27T09:52:15.868Z,1013.54
2018-05-27T09:54:08.891Z,1013.52
2018-05-27T09:55:08.963Z,1013.50
2018-05-27T09:57:01.974Z,1013.47
2018-05-27T09:58:02.055Z,1013.47
2018-05-27T09:59:55.074Z,1013.47
2018-05-27T10:00:55.132Z,1013.48
2018-05-27T10:02:48.155Z,1013.41
2018-05-27T10:03:48.229Z,1013.40
2018-05-27T10:05:41.250Z,1013.41
2018-05-27T10:06:41.318Z,1013.39
2018-05-27T10:08:34.331Z,1013.40
2018-05-27T10:09:34.405Z,1013.41
2018-05-27T10:11:27.427Z,1013.38
2018-05-27T10:12:27.491Z,1013.39
2018-05-27T10:14:20.512Z,1013.40
2018-05-27T10:15:20.575Z,1013.32
2018-05-27T10:17:13.588Z,1013.30
2018-05-27T10:18:13.662Z,1013.36
2018-05-27T10:20:06.723Z,1013.33
2018-05-27T10:21:06.744Z,1013.35
2018-05-27T10:22:59.760Z,1013.37
2018-05-27T10:23:59.838Z,1013.36
2018-05-27T10:25:52.900Z,1013.35
2018-05-27T10:26:52.930Z,1013.42
2018-05-27T10:28:45.944Z,1013.30
2018-05-27T10:29:46.017Z,1013.29
2018-05-27T10:31:39.041Z,1013.22
2018-05-27T10:32:39.108Z,1013.19
2018-05-27T10:34:32.125Z,1013.17
2018-05-27T10:35:32.195Z,1013.21
2018-05-27T10:37:25.205Z,1013.21
2018-05-27T10:38:25.276Z,1013.17
2018-05-27T10:40:18.302Z,1013.13
2018-05-27T10:41:18.371Z,1013.11
2018-05-27T10:43:11.385Z,1013.13
2018-05-27T10:44:11.453Z,1013.06
2018-05-27T10:46:04.471Z,1013.08
2018-05-27T10:47:04.537Z,1013.05
2018-05-27T10:48:57.556Z,1013.03
2018-05-27T10:49:57.626Z,1013.03
2018-05-27T10:51:50.651Z,1013.03
2018-05-27T10:52:50.717Z,1013.00
2018-05-27T10:54:43.731Z,1013.02
2018-05-27T10:55:43.796Z,1013.03
2018-05-27T10:57:36.821Z,1013.01
2018-05-27T10:58:36.880Z,1012.99
2018-05-27T11:00:29.899Z,1012.94
2018-05-27T11:01:29.964Z,1012.96
2018-05-27T11:03:22.977Z,1012.92
2018-05-27T11:04:23.052Z,1012.88
2018-05-27T11:06:16.070Z,1012.84
2018-05-27T11:07:16.137Z,1012.83
2018-05-27T11:09:09.145Z,1012.78
2018-05-27T11:10:09.215Z,1012.76
2018-05-27T11:12:02.234Z,1012.79
2018-05-27T11:13:02.304Z,1012.80
2018-05-27T11:14:55.328Z,1012.68
2018-05-27T11:15:55.397Z,1012.70
2018-05-27T11:17:48.464Z,1012.71
2018-05-27T11:18:48.476Z,1012.72
2018-05-27T11:20:41.549Z,1012.66
2018-05-27T11:21:41.561Z,1012.67
2018-05-27T11:23:34.576Z,1012.66
2018-05-27T11:24:34.645Z,1012.67
2018-05-27T11:26:27.665Z,1012.63
2018-05-27T11:27:27.732Z,1012.69
2018-05-27T11:29:20.744Z,1012.70
2018-05-27T11:30:20.812Z,1012.68
2018-05-27T11:32:13.834Z,1012.68
2018-05-27T11:33:13.896Z,1012.70
2018-05-27T11:35:06.913Z,1012.66
2018-05-27T11:36:06.978Z,1012.77
2018-05-27T11:38:00.017Z,1012.77
2018-05-27T11:39:00.058Z,1012.66
2018-05-27T11:40:53.082Z,1012.67
2018-05-27T11:41:53.149Z,1012.63
2018-05-27T11:43:46.175Z,1012.69
2018-05-27T11:44:46.245Z,1012.58
2018-05-27T11:46:39.267Z,1012.62
2018-05-27T11:47:39.332Z,1012.58
2018-05-27T11:49:32.346Z,1012.57
2018-05-27T11:50:32.423Z,1012.57
2018-05-27T11:52:25.439Z,1012.63
2018-05-27T11:53:25.506Z,1012.59
2018-05-27T11:55:18.529Z,1012.53
2018-05-27T11:56:18.600Z,1012.53
2018-05-27T11:58:11.601Z,1012.55
2018-05-27T11:59:11.680Z,1012.49
2018-05-27T12:01:04.697Z,1012.58
2018-05-27T12:02:04.813Z,1012.51
2018-05-27T12:03:57.772Z,1012.46
2018-05-27T12:04:57.845Z,1012.54
2018-05-27T12:06:50.871Z,1012.53
2018-05-27T12:07:50.937Z,1012.53
2018-05-27T12:09:44.243Z,1012.45
2018-05-27T12:10:44.022Z,1012.46
2018-05-27T12:12:37.037Z,1012.38
2018-05-27T12:13:37.107Z,1012.41
2018-05-27T12:15:30.127Z,1012.32
2018-05-27T12:16:30.193Z,1012.27
2018-05-27T12:18:23.206Z,1012.31
2018-05-27T12:19:23.278Z,1012.24
2018-05-27T12:21:16.292Z,1012.31
2018-05-27T12:22:16.358Z,1012.30
2018-05-27T12:24:09.442Z,1012.31
2018-05-27T12:25:09.443Z,1012.28
2018-05-27T12:27:02.475Z,1012.29
2018-05-27T12:28:02.520Z,1012.26
2018-05-27T12:29:55.570Z,1012.29
2018-05-27T12:30:55.602Z,1012.31
2018-05-27T12:32:48.618Z,1012.24
2018-05-27T12:33:48.683Z,1012.24
2018-05-27T12:35:41.701Z,1012.27
2018-05-27T12:36:41.767Z,1012.27
2018-05-27T12:38:34.780Z,1012.23
2018-05-27T12:39:34.848Z,1012.22
2018-05-27T12:41:27.877Z,1012.29
2018-05-27T12:42:27.930Z,1012.29
2018-05-27T12:44:20.941Z,1012.21
2018-05-27T12:45:21.009Z,1012.23
2018-05-27T12:47:14.025Z,1012.20
2018-05-27T12:48:14.119Z,1012.20
2018-05-27T12:50:07.100Z,1012.22
2018-05-27T12:51:07.173Z,1012.18
2018-05-27T12:53:00.191Z,1012.21
2018-05-27T12:54:00.259Z,1012.19
2018-05-27T12:55:53.275Z,1012.09
2018-05-27T12:56:53.341Z,1012.08
2018-05-27T12:58:46.347Z,1012.10
2018-05-27T12:59:46.421Z,1012.05
2018-05-27T13:01:39.438Z,1012.01
2018-05-27T13:02:39.505Z,1011.95
2018-05-27T13:04:32.516Z,1011.96
2018-05-27T13:05:32.589Z,1011.88
2018-05-27T13:07:25.605Z,1011.78
2018-05-27T13:08:25.673Z,1011.76
2018-05-27T13:10:18.690Z,1011.71
2018-05-27T13:11:18.764Z,1011.68
2018-05-27T13:13:11.774Z,1011.62
2018-05-27T13:14:11.846Z,1011.59
2018-05-27T13:16:04.870Z,1011.57
2018-05-27T13:17:04.925Z,1011.58
2018-05-27T13:18:57.938Z,1011.54
2018-05-27T13:19:58.014Z,1011.60
2018-05-27T13:21:51.032Z,1011.56
2018-05-27T13:22:51.098Z,1011.55
2018-05-27T13:24:44.113Z,1011.57
2018-05-27T13:25:44.187Z,1011.54
2018-05-27T13:27:37.209Z,1011.61
2018-05-27T13:28:37.268Z,1011.67
2018-05-27T13:30:30.280Z,1011.70
2018-05-27T13:31:30.355Z,1011.69
2018-05-27T13:33:23.381Z,1011.71
2018-05-27T13:34:23.443Z,1011.68
2018-05-27T13:36:16.468Z,1011.67
2018-05-27T13:37:16.533Z,1011.62
2018-05-27T13:39:09.546Z,1011.64
2018-05-27T13:40:09.614Z,1011.64
2018-05-27T13:42:03.136Z,1011.65
2018-05-27T13:43:03.199Z,1011.64
2018-05-27T13:44:56.262Z,1011.65
2018-05-27T13:45:56.279Z,1011.66
2018-05-27T13:47:49.289Z,1011.63
2018-05-27T13:48:49.354Z,1011.64
2018-05-27T13:50:42.376Z,1011.64
2018-05-27T13:51:42.435Z,1011.60
2018-05-27T13:53:35.487Z,1011.59
2018-05-27T13:54:35.516Z,1011.58
2018-05-27T13:56:28.552Z,1011.54
2018-05-27T13:57:28.601Z,1011.50
2018-05-27T13:59:21.613Z,1011.51
2018-05-27T14:00:21.723Z,1011.53
2018-05-27T14:02:14.707Z,1011.55
2018-05-27T14:03:14.765Z,1011.54
2018-05-27T14:05:07.777Z,1011.59
2018-05-27T14:06:07.848Z,1011.55
2018-05-27T14:08:00.855Z,1011.53
2018-05-27T14:09:00.920Z,1011.54
2018-05-27T14:10:53.934Z,1011.52
2018-05-27T14:11:54.005Z,1011.51
2018-05-27T14:13:47.024Z,1011.51
2018-05-27T14:14:47.094Z,1011.47
2018-05-27T14:16:40.101Z,1011.46
2018-05-27T14:17:40.165Z,1011.40
2018-05-27T14:19:33.178Z,1011.42
2018-05-27T14:20:33.243Z,1011.41
2018-05-27T14:22:26.266Z,1011.37
2018-05-27T14:23:26.333Z,1011.39
2018-05-27T14:25:19.904Z,1011.38
2018-05-27T14:26:19.915Z,1011.38
2018-05-27T14:28:12.934Z,1011.40
2018-05-27T14:29:12.989Z,1011.40
2018-05-27T14:31:06.002Z,1011.40
2018-05-27T14:32:06.066Z,1011.44
2018-05-27T14:33:59.094Z,1011.49
2018-05-27T14:34:59.166Z,1011.56
2018-05-27T14:36:52.158Z,1011.68
2018-05-27T14:37:52.231Z,1011.76
2018-05-27T14:39:45.235Z,1011.83
2018-05-27T14:40:45.308Z,1011.85
2018-05-27T14:42:38.321Z,1011.84
2018-05-27T14:43:38.385Z,1011.86
2018-05-27T14:45:31.397Z,1011.84
2018-05-27T14:46:31.458Z,1011.85
2018-05-27T14:48:24.473Z,1011.87
2018-05-27T14:49:24.536Z,1011.90
2018-05-27T14:51:17.544Z,1011.95
2018-05-27T14:52:17.615Z,1011.98
2018-05-27T14:54:10.625Z,1012.03
2018-05-27T14:55:10.994Z,1012.02
2018-05-27T14:57:03.700Z,1012.01
2018-05-27T14:58:03.818Z,1012.04
2018-05-27T14:59:56.778Z,1012.20
2018-05-27T15:00:56.835Z,1012.19
2018-05-27T15:02:49.851Z,1012.18
2018-05-27T15:03:49.912Z,1012.14
2018-05-27T15:05:42.918Z,1012.20
2018-05-27T15:06:42.987Z,1012.21
2018-05-27T15:08:36.026Z,1012.32
2018-05-27T15:09:36.063Z,1012.29
2018-05-27T15:11:29.083Z,1012.29
2018-05-27T15:12:29.153Z,1012.33
2018-05-27T15:14:22.162Z,1012.31
2018-05-27T15:15:22.227Z,1012.34
2018-05-27T15:17:15.237Z,1012.37
2018-05-27T15:18:15.297Z,1012.37
2018-05-27T15:20:08.302Z,1012.35
2018-05-27T15:21:08.372Z,1012.35
2018-05-27T15:23:01.383Z,1012.33
2018-05-27T15:24:01.445Z,1012.37
2018-05-27T15:25:54.457Z,1012.32
2018-05-27T15:26:54.519Z,1012.26
2018-05-27T15:28:47.538Z,1012.22
2018-05-27T15:29:47.597Z,1012.19
2018-05-27T15:31:40.600Z,1012.20
2018-05-27T15:32:40.672Z,1012.15
2018-05-27T15:34:33.682Z,1012.10
2018-05-27T15:35:33.743Z,1012.08
2018-05-27T15:37:26.752Z,1012.07
2018-05-27T15:38:26.816Z,1012.08
2018-05-27T15:40:19.820Z,1012.06
2018-05-27T15:41:19.896Z,1012.08
2018-05-27T15:43:12.900Z,1012.05
2018-05-27T15:44:12.965Z,1012.04
2018-05-27T15:46:05.969Z,1012.04
2018-05-27T15:47:06.040Z,1012.07
2018-05-27T15:48:59.048Z,1012.12
2018-05-27T15:50:00.111Z,1012.09
2018-05-27T15:51:52.126Z,1012.08
2018-05-27T15:52:52.198Z,1012.08
2018-05-27T15:54:45.235Z,1012.03
2018-05-27T15:55:45.279Z,1012.04
2018-05-27T15:57:38.298Z,1012.02
2018-05-27T15:58:38.346Z,1011.99
2018-05-27T16:00:31.358Z,1011.97
2018-05-27T16:01:31.426Z,1011.93
2018-05-27T16:03:24.445Z,1011.89
2018-05-27T16:04:24.514Z,1011.88
2018-05-27T16:06:17.523Z,1011.83
2018-05-27T16:07:17.596Z,1011.82
2018-05-27T16:09:10.602Z,1011.76
2018-05-27T16:10:10.667Z,1011.75
2018-05-27T16:12:03.660Z,1011.70
2018-05-27T16:13:03.735Z,1011.69
2018-05-27T16:14:56.751Z,1011.71
2018-05-27T16:15:56.809Z,1011.68
2018-05-27T16:17:49.827Z,1011.62
2018-05-27T16:18:49.885Z,1011.64
2018-05-27T16:20:42.888Z,1011.63
2018-05-27T16:21:42.955Z,1011.59
2018-05-27T16:23:35.980Z,1011.52
2018-05-27T16:24:36.036Z,1011.45
2018-05-27T16:26:29.043Z,1011.47
2018-05-27T16:27:29.110Z,1011.49
2018-05-27T16:29:22.136Z,1011.59
2018-05-27T16:30:22.189Z,1011.55
2018-05-27T16:32:15.199Z,1011.58
2018-05-27T16:33:15.269Z,1011.58
2018-05-27T16:35:08.277Z,1011.58
2018-05-27T16:36:08.344Z,1011.60
2018-05-27T16:38:01.357Z,1011.58
2018-05-27T16:39:01.419Z,1011.58
2018-05-27T16:40:54.439Z,1011.51
2018-05-27T16:41:54.507Z,1011.55
2018-05-27T16:43:47.516Z,1011.49
2018-05-27T16:44:47.586Z,1011.48
2018-05-27T16:46:40.599Z,1011.47
2018-05-27T16:47:40.666Z,1011.49
2018-05-27T16:49:33.672Z,1011.54
2018-05-27T16:50:33.733Z,1011.58
2018-05-27T16:52:26.735Z,1011.65
2018-05-27T16:53:26.803Z,1011.67
2018-05-27T16:55:19.813Z,1011.70
2018-05-27T16:56:19.876Z,1011.72
2018-05-27T16:58:12.889Z,1011.75
2018-05-27T16:59:12.950Z,1011.75
2018-05-27T17:01:05.952Z,1011.76
2018-05-27T17:02:06.016Z,1011.81
2018-05-27T17:03:59.027Z,1011.77
2018-05-27T17:04:59.086Z,1011.76
2018-05-27T17:06:52.096Z,1011.79
2018-05-27T17:07:52.160Z,1011.79
2018-05-27T17:09:45.172Z,1011.72
2018-05-27T17:10:45.229Z,1011.69
2018-05-27T17:12:38.234Z,1011.66
2018-05-27T17:13:38.302Z,1011.64
2018-05-27T17:15:31.308Z,1011.62
2018-05-27T17:16:31.371Z,1011.65
2018-05-27T17:18:24.383Z,1011.63
2018-05-27T17:19:24.442Z,1011.61
2018-05-27T17:21:17.448Z,1011.56
2018-05-27T17:22:17.510Z,1011.53
2018-05-27T17:24:10.526Z,1011.49
2018-05-27T17:25:10.588Z,1011.47
2018-05-27T17:27:03.598Z,1011.42